Bramhope, United Kingdom
Current Conditions -  °F | °C
As of 11:50 AM on Thursday 30 Oct 2014 (Local Time) from EGNM Reporting Station
Haze Haze  
Wind Chill: 55°   Ceiling: Unl
Heat Index: 55°   Visibility: 1.2mi
Dew Point: 55°   Wind: 7mph
Humidity: 100%   Direction: 200°SSW
Pressure: 29.97"   Gusts: NA
Location:  53.88°N, 1.62°W
Report Text: EGNM 301150Z 20006KT 2000 BR SCT005 SCT010 13/13 Q1015
Loading
Personal Weather Stations






























Interactive Weather Map
Tropical Storm Tracking
New forecast layout! Learn more

10-Day Weather Forecast

Advertisements
Track Severe Weather on mobile